sensor_id;sensor_type;location;lat;lon;timestamp;pressure;altitude;pressure_sealevel;temperature;humidity
47522;BME280;32291;52.010;4.446;2023-04-22T00:00:37;78583.00;;;-144.67;100.00
47522;BME280;32291;52.010;4.446;2023-04-22T00:01:39;78587.28;;;-144.67;100.00
47522;BME280;32291;52.010;4.446;2023-04-22T00:02:41;78591.56;;;-144.67;100.00
47522;BME280;32291;52.010;4.446;2023-04-22T00:03:44;78591.56;;;-144.67;100.00
47522;BME280;32291;52.010;4.446;2023-04-22T00:04:46;78602.28;;;-144.67;100.00
47522;BME280;32291;52.010;4.446;2023-04-22T00:05:48;78598.00;;;-144.67;100.00
47522;BME280;32291;52.010;4.446;2023-04-22T00:06:50;78593.69;;;-144.67;100.00
47522;BME280;32291;52.010;4.446;2023-04-22T00:07:52;78583.00;;;-144.67;100.00
47522;BME280;32291;52.010;4.446;2023-04-22T00:08:54;78585.13;;;-144.67;100.00
47522;BME280;32291;52.010;4.446;2023-04-22T00:09:56;78578.72;;;-144.67;100.00
47522;BME280;32291;52.010;4.446;2023-04-22T00:10:57;78578.72;;;-144.67;100.00
47522;BME280;32291;52.010;4.446;2023-04-22T00:12:00;78591.56;;;-144.67;100.00
47522;BME280;32291;52.010;4.446;2023-04-22T00:13:02;78585.13;;;-144.67;100.00
47522;BME280;32291;52.010;4.446;2023-04-22T00:14:04;78587.28;;;-144.67;100.00
47522;BME280;32291;52.010;4.446;2023-04-22T00:15:07;78587.28;;;-144.67;100.00
47522;BME280;32291;52.010;4.446;2023-04-22T00:16:09;78583.00;;;-144.67;100.00
47522;BME280;32291;52.010;4.446;2023-04-22T00:17:11;78578.72;;;-144.67;100.00
47522;BME280;32291;52.010;4.446;2023-04-22T00:18:13;78576.56;;;-144.67;100.00
47522;BME280;32291;52.010;4.446;2023-04-22T00:19:15;78583.00;;;-144.67;100.00
47522;BME280;32291;52.010;4.446;2023-04-22T00:20:19;78580.84;;;-144.67;100.00
47522;BME280;32291;52.010;4.446;2023-04-22T00:21:22;78585.13;;;-144.67;100.00
47522;BME280;32291;52.010;4.446;2023-04-22T00:22:23;78595.84;;;-144.67;100.00
47522;BME280;32291;52.010;4.446;2023-04-22T00:23:25;78585.13;;;-144.67;100.00
47522;BME280;32291;52.010;4.446;2023-04-22T00:24:27;78583.00;;;-144.67;100.00
47522;BME280;32291;52.010;4.446;2023-04-22T00:25:28;78587.28;;;-144.67;100.00
47522;BME280;32291;52.010;4.446;2023-04-22T00:26:30;78591.56;;;-144.67;100.00
47522;BME280;32291;52.010;4.446;2023-04-22T00:27:32;78600.13;;;-144.67;100.00
47522;BME280;32291;52.010;4.446;2023-04-22T00:28:34;78595.84;;;-144.67;100.00
47522;BME280;32291;52.010;4.446;2023-04-22T00:29:36;78600.13;;;-144.67;100.00
47522;BME280;32291;52.010;4.446;2023-04-22T00:30:37;78604.41;;;-144.67;100.00
47522;BME280;32291;52.010;4.446;2023-04-22T00:31:39;78606.56;;;-144.67;100.00
47522;BME280;32291;52.010;4.446;2023-04-22T00:32:41;78612.97;;;-144.67;100.00
47522;BME280;32291;52.010;4.446;2023-04-22T00:33:42;78621.53;;;-144.67;100.00
47522;BME280;32291;52.010;4.446;2023-04-22T00:34:44;78619.41;;;-144.67;100.00
47522;BME280;32291;52.010;4.446;2023-04-22T00:35:46;78621.53;;;-144.67;100.00
47522;BME280;32291;52.010;4.446;2023-04-22T00:36:48;78625.81;;;-144.67;100.00
47522;BME280;32291;52.010;4.446;2023-04-22T00:37:52;78630.09;;;-144.67;100.00
47522;BME280;32291;52.010;4.446;2023-04-22T00:38:54;78638.66;;;-144.67;100.00
47522;BME280;32291;52.010;4.446;2023-04-22T00:39:56;78642.94;;;-144.67;100.00
47522;BME280;32291;52.010;4.446;2023-04-22T00:40:58;78642.94;;;-144.67;100.00
47522;BME280;32291;52.010;4.446;2023-04-22T00:42:02;78642.94;;;-144.67;100.00
47522;BME280;32291;52.010;4.446;2023-04-22T00:43:04;78649.38;;;-144.67;100.00
47522;BME280;32291;52.010;4.446;2023-04-22T00:44:10;78662.22;;;-144.67;100.00
47522;BME280;32291;52.010;4.446;2023-04-22T00:45:14;78664.38;;;-144.67;100.00
47522;BME280;32291;52.010;4.446;2023-04-22T00:46:19;78668.66;;;-144.67;100.00
47522;BME280;32291;52.010;4.446;2023-04-22T00:47:21;78672.94;;;-144.67;100.00
47522;BME280;32291;52.010;4.446;2023-04-22T00:48:28;78666.50;;;-144.67;100.00
47522;BME280;32291;52.010;4.446;2023-04-22T00:49:30;78677.22;;;-144.67;100.00
47522;BME280;32291;52.010;4.446;2023-04-22T00:50:33;78675.06;;;-144.67;100.00
47522;BME280;32291;52.010;4.446;2023-04-22T00:51:34;78672.94;;;-144.67;100.00
47522;BME280;32291;52.010;4.446;2023-04-22T00:52:37;78666.50;;;-144.67;100.00
47522;BME280;32291;52.010;4.446;2023-04-22T00:53:39;78666.50;;;-144.67;100.00
47522;BME280;32291;52.010;4.446;2023-04-22T00:54:41;78664.38;;;-144.67;100.00
47522;BME280;32291;52.010;4.446;2023-04-22T00:55:43;78668.66;;;-144.67;100.00
47522;BME280;32291;52.010;4.446;2023-04-22T00:56:45;78664.38;;;-144.67;100.00
47522;BME280;32291;52.010;4.446;2023-04-22T00:57:49;78672.94;;;-144.67;100.00
47522;BME280;32291;52.010;4.446;2023-04-22T00:58:56;78677.22;;;-144.67;100.00
47522;BME280;32291;52.010;4.446;2023-04-22T00:59:58;78677.22;;;-144.67;100.00
47522;BME280;32291;52.010;4.446;2023-04-22T01:01:01;78675.06;;;-144.67;100.00
47522;BME280;32291;52.010;4.446;2023-04-22T01:02:03;78681.50;;;-144.67;100.00
47522;BME280;32291;52.010;4.446;2023-04-22T01:03:06;78681.50;;;-144.67;100.00
47522;BME280;32291;52.010;4.446;2023-04-22T01:04:07;78683.63;;;-144.67;100.00
47522;BME280;32291;52.010;4.446;2023-04-22T01:05:11;78687.91;;;-144.67;100.00
47522;BME280;32291;52.010;4.446;2023-04-22T01:06:12;78696.47;;;-144.67;100.00
47522;BME280;32291;52.010;4.446;2023-04-22T01:07:15;78698.63;;;-144.67;100.00
47522;BME280;32291;52.010;4.446;2023-04-22T01:08:17;78698.63;;;-144.67;100.00
47522;BME280;32291;52.010;4.446;2023-04-22T01:09:19;78698.63;;;-144.67;100.00
47522;BME280;32291;52.010;4.446;2023-04-22T01:10:21;78698.63;;;-144.67;100.00
47522;BME280;32291;52.010;4.446;2023-04-22T01:11:24;78702.91;;;-144.67;100.00
47522;BME280;32291;52.010;4.446;2023-04-22T01:12:25;78702.91;;;-144.67;100.00
47522;BME280;32291;52.010;4.446;2023-04-22T01:13:27;78702.91;;;-144.67;100.00
47522;BME280;32291;52.010;4.446;2023-04-22T01:14:31;78707.19;;;-144.67;100.00
47522;BME280;32291;52.010;4.446;2023-04-22T01:15:33;78711.47;;;-144.67;100.00
47522;BME280;32291;52.010;4.446;2023-04-22T01:16:35;78707.19;;;-144.67;100.00
47522;BME280;32291;52.010;4.446;2023-04-22T01:17:39;78707.19;;;-144.67;100.00
47522;BME280;32291;52.010;4.446;2023-04-22T01:18:41;78707.19;;;-144.67;100.00
47522;BME280;32291;52.010;4.446;2023-04-22T01:19:44;78707.19;;;-144.67;100.00
47522;BME280;32291;52.010;4.446;2023-04-22T01:20:46;78707.19;;;-144.67;100.00
47522;BME280;32291;52.010;4.446;2023-04-22T01:21:50;78709.31;;;-144.67;100.00
47522;BME280;32291;52.010;4.446;2023-04-22T01:22:53;78713.63;;;-144.67;100.00
47522;BME280;32291;52.010;4.446;2023-04-22T01:23:55;78715.75;;;-144.67;100.00
47522;BME280;32291;52.010;4.446;2023-04-22T01:24:56;78717.91;;;-144.67;100.00
47522;BME280;32291;52.010;4.446;2023-04-22T01:25:58;78728.59;;;-144.67;100.00
47522;BME280;32291;52.010;4.446;2023-04-22T01:27:00;78728.59;;;-144.67;100.00
47522;BME280;32291;52.010;4.446;2023-04-22T01:28:03;78724.31;;;-144.67;100.00
47522;BME280;32291;52.010;4.446;2023-04-22T01:29:05;78730.75;;;-144.67;100.00
47522;BME280;32291;52.010;4.446;2023-04-22T01:30:08;78720.03;;;-144.67;100.00
47522;BME280;32291;52.010;4.446;2023-04-22T01:31:11;78722.19;;;-144.67;100.00
47522;BME280;32291;52.010;4.446;2023-04-22T01:32:13;78728.59;;;-144.67;100.00
47522;BME280;32291;52.010;4.446;2023-04-22T01:33:16;78720.03;;;-144.67;100.00
47522;BME280;32291;52.010;4.446;2023-04-22T01:34:17;78724.31;;;-144.67;100.00
47522;BME280;32291;52.010;4.446;2023-04-22T01:35:19;78722.19;;;-144.67;100.00
47522;BME280;32291;52.010;4.446;2023-04-22T01:36:21;78720.03;;;-144.67;100.00
47522;BME280;32291;52.010;4.446;2023-04-22T01:37:23;78717.91;;;-144.67;100.00
47522;BME280;32291;52.010;4.446;2023-04-22T01:38:25;78711.47;;;-144.67;100.00
47522;BME280;32291;52.010;4.446;2023-04-22T01:39:28;78724.31;;;-144.67;100.00
47522;BME280;32291;52.010;4.446;2023-04-22T01:40:33;78720.03;;;-144.67;100.00
47522;BME280;32291;52.010;4.446;2023-04-22T01:41:35;78720.03;;;-144.67;100.00
47522;BME280;32291;52.010;4.446;2023-04-22T01:42:37;78726.47;;;-144.67;100.00
47522;BME280;32291;52.010;4.446;2023-04-22T01:43:40;78728.59;;;-144.67;100.00
47522;BME280;32291;52.010;4.446;2023-04-22T01:44:42;78732.88;;;-144.67;100.00
47522;BME280;32291;52.010;4.446;2023-04-22T01:45:44;78720.03;;;-144.67;100.00
47522;BME280;32291;52.010;4.446;2023-04-22T01:46:45;78722.19;;;-144.67;100.00
47522;BME280;32291;52.010;4.446;2023-04-22T01:47:47;78720.03;;;-144.67;100.00
47522;BME280;32291;52.010;4.446;2023-04-22T01:48:49;78720.03;;;-144.67;100.00
47522;BME280;32291;52.010;4.446;2023-04-22T01:49:52;78724.31;;;-144.67;100.00
47522;BME280;32291;52.010;4.446;2023-04-22T01:50:54;78732.88;;;-144.67;100.00
47522;BME280;32291;52.010;4.446;2023-04-22T01:51:59;78732.88;;;-144.67;100.00
47522;BME280;32291;52.010;4.446;2023-04-22T01:53:02;78737.16;;;-144.67;100.00
47522;BME280;32291;52.010;4.446;2023-04-22T01:54:04;78743.59;;;-144.67;100.00
47522;BME280;32291;52.010;4.446;2023-04-22T01:55:07;78747.88;;;-144.67;100.00
47522;BME280;32291;52.010;4.446;2023-04-22T01:56:09;78741.44;;;-144.67;100.00
47522;BME280;32291;52.010;4.446;2023-04-22T01:57:12;78737.16;;;-144.67;100.00
47522;BME280;32291;52.010;4.446;2023-04-22T01:58:14;78741.44;;;-144.67;100.00
47522;BME280;32291;52.010;4.446;2023-04-22T01:59:17;78739.31;;;-144.67;100.00
47522;BME280;32291;52.010;4.446;2023-04-22T02:00:19;78732.88;;;-144.67;100.00
47522;BME280;32291;52.010;4.446;2023-04-22T02:01:21;78728.59;;;-144.67;100.00
47522;BME280;32291;52.010;4.446;2023-04-22T02:02:23;78730.75;;;-144.67;100.00
47522;BME280;32291;52.010;4.446;2023-04-22T02:03:25;78730.75;;;-144.67;100.00
47522;BME280;32291;52.010;4.446;2023-04-22T02:04:26;78728.59;;;-144.67;100.00
47522;BME280;32291;52.010;4.446;2023-04-22T02:05:28;78732.88;;;-144.67;100.00
47522;BME280;32291;52.010;4.446;2023-04-22T02:06:29;78737.16;;;-144.67;100.00
47522;BME280;32291;52.010;4.446;2023-04-22T02:07:32;78737.16;;;-144.67;100.00
47522;BME280;32291;52.010;4.446;2023-04-22T02:08:34;78730.75;;;-144.67;100.00
47522;BME280;32291;52.010;4.446;2023-04-22T02:09:36;78732.88;;;-144.67;100.00
47522;BME280;32291;52.010;4.446;2023-04-22T02:10:38;78735.03;;;-144.67;100.00
47522;BME280;32291;52.010;4.446;2023-04-22T02:11:40;78737.16;;;-144.67;100.00
47522;BME280;32291;52.010;4.446;2023-04-22T02:12:41;78737.16;;;-144.67;100.00
47522;BME280;32291;52.010;4.446;2023-04-22T02:13:43;78741.44;;;-144.67;100.00
47522;BME280;32291;52.010;4.446;2023-04-22T02:14:45;78732.88;;;-144.67;100.00
47522;BME280;32291;52.010;4.446;2023-04-22T02:15:46;78737.16;;;-144.67;100.00
47522;BME280;32291;52.010;4.446;2023-04-22T02:16:48;78732.88;;;-144.67;100.00
47522;BME280;32291;52.010;4.446;2023-04-22T02:17:49;78728.59;;;-144.67;100.00
47522;BME280;32291;52.010;4.446;2023-04-22T02:18:51;78728.59;;;-144.67;100.00
47522;BME280;32291;52.010;4.446;2023-04-22T02:19:53;78737.16;;;-144.67;100.00
47522;BME280;32291;52.010;4.446;2023-04-22T02:20:55;78737.16;;;-144.67;100.00
47522;BME280;32291;52.010;4.446;2023-04-22T02:21:57;78735.03;;;-144.67;100.00
47522;BME280;32291;52.010;4.446;2023-04-22T02:22:58;78732.88;;;-144.67;100.00
47522;BME280;32291;52.010;4.446;2023-04-22T02:24:00;78739.31;;;-144.67;100.00
47522;BME280;32291;52.010;4.446;2023-04-22T02:25:03;78732.88;;;-144.67;100.00
47522;BME280;32291;52.010;4.446;2023-04-22T02:26:06;78732.88;;;-144.67;100.00
47522;BME280;32291;52.010;4.446;2023-04-22T02:27:09;78732.88;;;-144.67;100.00
47522;BME280;32291;52.010;4.446;2023-04-22T02:28:10;78737.16;;;-144.67;100.00
47522;BME280;32291;52.010;4.446;2023-04-22T02:29:13;78735.03;;;-144.67;100.00
47522;BME280;32291;52.010;4.446;2023-04-22T02:30:14;78732.88;;;-144.67;100.00
47522;BME280;32291;52.010;4.446;2023-04-22T02:31:16;78737.16;;;-144.67;100.00
47522;BME280;32291;52.010;4.446;2023-04-22T02:32:18;78735.03;;;-144.67;100.00
47522;BME280;32291;52.010;4.446;2023-04-22T02:33:19;78737.16;;;-144.67;100.00
47522;BME280;32291;52.010;4.446;2023-04-22T02:34:21;78732.88;;;-144.67;100.00
47522;BME280;32291;52.010;4.446;2023-04-22T02:35:23;78732.88;;;-144.67;100.00
47522;BME280;32291;52.010;4.446;2023-04-22T02:36:25;78730.75;;;-144.67;100.00
47522;BME280;32291;52.010;4.446;2023-04-22T02:37:28;78735.03;;;-144.67;100.00
47522;BME280;32291;52.010;4.446;2023-04-22T02:38:30;78739.31;;;-144.67;100.00
47522;BME280;32291;52.010;4.446;2023-04-22T02:39:32;78741.44;;;-144.67;100.00
47522;BME280;32291;52.010;4.446;2023-04-22T02:40:34;78737.16;;;-144.67;100.00
47522;BME280;32291;52.010;4.446;2023-04-22T02:41:35;78737.16;;;-144.67;100.00
47522;BME280;32291;52.010;4.446;2023-04-22T02:42:37;78732.88;;;-144.67;100.00
47522;BME280;32291;52.010;4.446;2023-04-22T02:43:39;78732.88;;;-144.67;100.00
47522;BME280;32291;52.010;4.446;2023-04-22T02:44:46;78739.31;;;-144.67;100.00
47522;BME280;32291;52.010;4.446;2023-04-22T02:45:48;78737.16;;;-144.67;100.00
47522;BME280;32291;52.010;4.446;2023-04-22T02:46:50;78737.16;;;-144.67;100.00
47522;BME280;32291;52.010;4.446;2023-04-22T02:47:51;78735.03;;;-144.67;100.00
47522;BME280;32291;52.010;4.446;2023-04-22T02:48:54;78728.59;;;-144.67;100.00
47522;BME280;32291;52.010;4.446;2023-04-22T02:49:55;78735.03;;;-144.67;100.00
47522;BME280;32291;52.010;4.446;2023-04-22T02:50:57;78724.31;;;-144.67;100.00
47522;BME280;32291;52.010;4.446;2023-04-22T02:51:59;78717.91;;;-144.67;100.00
47522;BME280;32291;52.010;4.446;2023-04-22T02:53:01;78728.59;;;-144.67;100.00
47522;BME280;32291;52.010;4.446;2023-04-22T02:54:02;78726.47;;;-144.67;100.00
47522;BME280;32291;52.010;4.446;2023-04-22T02:55:04;78722.19;;;-144.67;100.00
47522;BME280;32291;52.010;4.446;2023-04-22T02:56:07;78724.31;;;-144.67;100.00
47522;BME280;32291;52.010;4.446;2023-04-22T02:57:12;78715.75;;;-144.67;100.00
47522;BME280;32291;52.010;4.446;2023-04-22T02:58:13;78709.31;;;-144.67;100.00
47522;BME280;32291;52.010;4.446;2023-04-22T02:59:16;78715.75;;;-144.67;100.00
47522;BME280;32291;52.010;4.446;2023-04-22T03:00:18;78715.75;;;-144.67;100.00
47522;BME280;32291;52.010;4.446;2023-04-22T03:01:19;78705.03;;;-144.67;100.00
47522;BME280;32291;52.010;4.446;2023-04-22T03:02:22;78715.75;;;-144.67;100.00
47522;BME280;32291;52.010;4.446;2023-04-22T03:03:24;78709.31;;;-144.67;100.00
47522;BME280;32291;52.010;4.446;2023-04-22T03:04:25;78711.47;;;-144.67;100.00
47522;BME280;32291;52.010;4.446;2023-04-22T03:05:27;78705.03;;;-144.67;100.00
47522;BME280;32291;52.010;4.446;2023-04-22T03:06:29;78700.75;;;-144.67;100.00
47522;BME280;32291;52.010;4.446;2023-04-22T03:07:32;78705.03;;;-144.67;100.00
47522;BME280;32291;52.010;4.446;2023-04-22T03:08:34;78707.19;;;-144.67;100.00
47522;BME280;32291;52.010;4.446;2023-04-22T03:09:35;78707.19;;;-144.67;100.00
47522;BME280;32291;52.010;4.446;2023-04-22T03:10:37;78711.47;;;-144.67;100.00
47522;BME280;32291;52.010;4.446;2023-04-22T03:11:38;78707.19;;;-144.67;100.00
47522;BME280;32291;52.010;4.446;2023-04-22T03:12:40;78705.03;;;-144.67;100.00
47522;BME280;32291;52.010;4.446;2023-04-22T03:13:42;78707.19;;;-144.67;100.00
47522;BME280;32291;52.010;4.446;2023-04-22T03:14:43;78707.19;;;-144.67;100.00
47522;BME280;32291;52.010;4.446;2023-04-22T03:15:45;78702.91;;;-144.67;100.00
47522;BME280;32291;52.010;4.446;2023-04-22T03:16:46;78702.91;;;-144.67;100.00
47522;BME280;32291;52.010;4.446;2023-04-22T03:17:48;78694.34;;;-144.67;100.00
47522;BME280;32291;52.010;4.446;2023-04-22T03:18:50;78696.47;;;-144.67;100.00
47522;BME280;32291;52.010;4.446;2023-04-22T03:19:52;78694.34;;;-144.67;100.00
47522;BME280;32291;52.010;4.446;2023-04-22T03:20:54;78692.19;;;-144.67;100.00
47522;BME280;32291;52.010;4.446;2023-04-22T03:21:56;78687.91;;;-144.67;100.00
47522;BME280;32291;52.010;4.446;2023-04-22T03:22:59;78681.50;;;-144.67;100.00
47522;BME280;32291;52.010;4.446;2023-04-22T03:24:01;78685.78;;;-144.67;100.00
47522;BME280;32291;52.010;4.446;2023-04-22T03:25:02;78679.34;;;-144.67;100.00
47522;BME280;32291;52.010;4.446;2023-04-22T03:26:04;78683.63;;;-144.67;100.00
47522;BME280;32291;52.010;4.446;2023-04-22T03:27:06;78683.63;;;-144.67;100.00
47522;BME280;32291;52.010;4.446;2023-04-22T03:28:10;78677.22;;;-144.67;100.00
47522;BME280;32291;52.010;4.446;2023-04-22T03:29:11;78681.50;;;-144.67;100.00
47522;BME280;32291;52.010;4.446;2023-04-22T03:30:13;78683.63;;;-144.67;100.00
47522;BME280;32291;52.010;4.446;2023-04-22T03:31:14;78677.22;;;-144.67;100.00
47522;BME280;32291;52.010;4.446;2023-04-22T03:32:16;78668.66;;;-144.67;100.00
47522;BME280;32291;52.010;4.446;2023-04-22T03:33:18;78668.66;;;-144.67;100.00
47522;BME280;32291;52.010;4.446;2023-04-22T03:34:20;78670.78;;;-144.67;100.00
47522;BME280;32291;52.010;4.446;2023-04-22T03:35:22;78660.09;;;-144.67;100.00
47522;BME280;32291;52.010;4.446;2023-04-22T03:36:25;78666.50;;;-144.67;100.00
47522;BME280;32291;52.010;4.446;2023-04-22T03:37:27;78660.09;;;-144.67;100.00
47522;BME280;32291;52.010;4.446;2023-04-22T03:38:30;78657.94;;;-144.67;100.00
47522;BME280;32291;52.010;4.446;2023-04-22T03:39:31;78660.09;;;-144.67;100.00
47522;BME280;32291;52.010;4.446;2023-04-22T03:40:33;78664.38;;;-144.67;100.00
47522;BME280;32291;52.010;4.446;2023-04-22T03:41:35;78660.09;;;-144.67;100.00
47522;BME280;32291;52.010;4.446;2023-04-22T03:42:37;78655.81;;;-144.67;100.00
47522;BME280;32291;52.010;4.446;2023-04-22T03:43:39;78664.38;;;-144.67;100.00
47522;BME280;32291;52.010;4.446;2023-04-22T03:44:41;78647.22;;;-144.67;100.00
47522;BME280;32291;52.010;4.446;2023-04-22T03:45:43;78647.22;;;-144.67;100.00
47522;BME280;32291;52.010;4.446;2023-04-22T03:46:46;78642.94;;;-144.67;100.00
47522;BME280;32291;52.010;4.446;2023-04-22T03:47:48;78645.09;;;-144.67;100.00
47522;BME280;32291;52.010;4.446;2023-04-22T03:48:49;78642.94;;;-144.67;100.00
47522;BME280;32291;52.010;4.446;2023-04-22T03:49:51;78638.66;;;-144.67;100.00
47522;BME280;32291;52.010;4.446;2023-04-22T03:50:53;78632.25;;;-144.67;100.00
47522;BME280;32291;52.010;4.446;2023-04-22T03:51:55;78630.09;;;-144.67;100.00
47522;BME280;32291;52.010;4.446;2023-04-22T03:52:57;78625.81;;;-144.67;100.00
47522;BME280;32291;52.010;4.446;2023-04-22T03:53:59;78625.81;;;-144.67;100.00
47522;BME280;32291;52.010;4.446;2023-04-22T03:55:01;78630.09;;;-144.67;100.00
47522;BME280;32291;52.010;4.446;2023-04-22T03:56:03;78621.53;;;-144.67;100.00
47522;BME280;32291;52.010;4.446;2023-04-22T03:57:05;78621.53;;;-144.67;100.00
47522;BME280;32291;52.010;4.446;2023-04-22T03:58:07;78617.25;;;-144.67;100.00
47522;BME280;32291;52.010;4.446;2023-04-22T03:59:09;78617.25;;;-144.67;100.00
47522;BME280;32291;52.010;4.446;2023-04-22T04:00:11;78617.25;;;-144.67;100.00
47522;BME280;32291;52.010;4.446;2023-04-22T04:01:13;78612.97;;;-144.67;100.00
47522;BME280;32291;52.010;4.446;2023-04-22T04:02:15;78615.13;;;-144.67;100.00
47522;BME280;32291;52.010;4.446;2023-04-22T04:03:17;78610.84;;;-144.67;100.00
47522;BME280;32291;52.010;4.446;2023-04-22T04:04:18;78608.69;;;-144.67;100.00
47522;BME280;32291;52.010;4.446;2023-04-22T04:05:20;78608.69;;;-144.67;100.00
47522;BME280;32291;52.010;4.446;2023-04-22T04:06:22;78604.41;;;-144.67;100.00
47522;BME280;32291;52.010;4.446;2023-04-22T04:07:24;78606.56;;;-144.67;100.00
47522;BME280;32291;52.010;4.446;2023-04-22T04:08:26;78604.41;;;-144.67;100.00
47522;BME280;32291;52.010;4.446;2023-04-22T04:09:28;78600.13;;;-144.67;100.00
47522;BME280;32291;52.010;4.446;2023-04-22T04:10:30;78598.00;;;-144.67;100.00
47522;BME280;32291;52.010;4.446;2023-04-22T04:11:31;78595.84;;;-144.67;100.00
47522;BME280;32291;52.010;4.446;2023-04-22T04:12:33;78598.00;;;-144.67;100.00
47522;BME280;32291;52.010;4.446;2023-04-22T04:13:34;78595.84;;;-144.67;100.00
47522;BME280;32291;52.010;4.446;2023-04-22T04:14:36;78591.56;;;-144.67;100.00
47522;BME280;32291;52.010;4.446;2023-04-22T04:15:38;78595.84;;;-144.67;100.00
47522;BME280;32291;52.010;4.446;2023-04-22T04:16:40;78595.84;;;-144.67;100.00
47522;BME280;32291;52.010;4.446;2023-04-22T04:17:42;78593.69;;;-144.67;100.00
47522;BME280;32291;52.010;4.446;2023-04-22T04:18:45;78585.13;;;-144.67;100.00
47522;BME280;32291;52.010;4.446;2023-04-22T04:19:52;78574.44;;;-144.67;100.00
47522;BME280;32291;52.010;4.446;2023-04-22T04:20:55;78578.72;;;-144.67;100.00
47522;BME280;32291;52.010;4.446;2023-04-22T04:21:57;78578.72;;;-144.67;100.00
47522;BME280;32291;52.010;4.446;2023-04-22T04:22:59;78583.00;;;-144.67;100.00
47522;BME280;32291;52.010;4.446;2023-04-22T04:24:02;78591.56;;;-144.67;100.00
47522;BME280;32291;52.010;4.446;2023-04-22T04:25:04;78591.56;;;-144.67;100.00
47522;BME280;32291;52.010;4.446;2023-04-22T04:26:07;78598.00;;;-144.67;100.00
47522;BME280;32291;52.010;4.446;2023-04-22T04:27:08;78595.84;;;-144.67;100.00
47522;BME280;32291;52.010;4.446;2023-04-22T04:28:12;78595.84;;;-144.67;100.00
47522;BME280;32291;52.010;4.446;2023-04-22T04:29:14;78591.56;;;-144.67;100.00
47522;BME280;32291;52.010;4.446;2023-04-22T04:30:16;78591.56;;;-144.67;100.00
47522;BME280;32291;52.010;4.446;2023-04-22T04:31:19;78585.13;;;-144.67;100.00
47522;BME280;32291;52.010;4.446;2023-04-22T04:32:21;78587.28;;;-144.67;100.00
47522;BME280;32291;52.010;4.446;2023-04-22T04:33:23;78598.00;;;-144.67;100.00
47522;BME280;32291;52.010;4.446;2023-04-22T04:34:25;78602.28;;;-144.67;100.00
47522;BME280;32291;52.010;4.446;2023-04-22T04:35:27;78595.84;;;-144.67;100.00
47522;BME280;32291;52.010;4.446;2023-04-22T04:36:29;78595.84;;;-144.67;100.00
47522;BME280;32291;52.010;4.446;2023-04-22T04:37:33;78595.84;;;-144.67;100.00
47522;BME280;32291;52.010;4.446;2023-04-22T04:38:34;78600.13;;;-144.67;100.00
47522;BME280;32291;52.010;4.446;2023-04-22T04:39:36;78602.28;;;-144.67;100.00
47522;BME280;32291;52.010;4.446;2023-04-22T04:40:38;78595.84;;;-144.67;100.00
47522;BME280;32291;52.010;4.446;2023-04-22T04:41:39;78604.41;;;-144.67;100.00
47522;BME280;32291;52.010;4.446;2023-04-22T04:42:41;78595.84;;;-144.67;100.00
47522;BME280;32291;52.010;4.446;2023-04-22T04:43:43;78600.13;;;-144.67;100.00
47522;BME280;32291;52.010;4.446;2023-04-22T04:44:46;78591.56;;;-144.67;100.00
47522;BME280;32291;52.010;4.446;2023-04-22T04:45:49;78591.56;;;-144.67;100.00
47522;BME280;32291;52.010;4.446;2023-04-22T04:46:51;78589.41;;;-144.67;100.00
47522;BME280;32291;52.010;4.446;2023-04-22T04:47:54;78580.84;;;-144.67;100.00
47522;BME280;32291;52.010;4.446;2023-04-22T04:48:56;78574.44;;;-144.67;100.00
47522;BME280;32291;52.010;4.446;2023-04-22T04:50:00;78578.72;;;-144.67;100.00
47522;BME280;32291;52.010;4.446;2023-04-22T04:51:04;78570.16;;;-144.67;100.00
47522;BME280;32291;52.010;4.446;2023-04-22T04:52:06;78561.59;;;-144.67;100.00
47522;BME280;32291;52.010;4.446;2023-04-22T04:53:11;78557.31;;;-144.67;100.00
47522;BME280;32291;52.010;4.446;2023-04-22T04:54:13;78548.75;;;-144.67;100.00
47522;BME280;32291;52.010;4.446;2023-04-22T04:55:15;78555.16;;;-144.67;100.00
47522;BME280;32291;52.010;4.446;2023-04-22T04:56:17;78544.47;;;-144.67;100.00
47522;BME280;32291;52.010;4.446;2023-04-22T04:57:19;78538.03;;;-144.67;100.00
47522;BME280;32291;52.010;4.446;2023-04-22T04:58:21;78535.91;;;-144.67;100.00
47522;BME280;32291;52.010;4.446;2023-04-22T04:59:22;78531.63;;;-144.67;100.00
47522;BME280;32291;52.010;4.446;2023-04-22T05:00:24;78531.63;;;-144.67;100.00
47522;BME280;32291;52.010;4.446;2023-04-22T05:01:25;78525.19;;;-144.67;100.00
47522;BME280;32291;52.010;4.446;2023-04-22T05:02:27;78523.03;;;-144.67;100.00
47522;BME280;32291;52.010;4.446;2023-04-22T05:03:29;78527.31;;;-144.67;100.00
47522;BME280;32291;52.010;4.446;2023-04-22T05:04:31;78520.91;;;-144.67;100.00
47522;BME280;32291;52.010;4.446;2023-04-22T05:05:33;78514.47;;;-144.67;100.00
47522;BME280;32291;52.010;4.446;2023-04-22T05:06:34;78518.75;;;-144.67;100.00
47522;BME280;32291;52.010;4.446;2023-04-22T05:07:36;78514.47;;;-144.67;100.00
47522;BME280;32291;52.010;4.446;2023-04-22T05:08:38;78514.47;;;-144.67;100.00
47522;BME280;32291;52.010;4.446;2023-04-22T05:09:40;78510.19;;;-144.67;100.00
47522;BME280;32291;52.010;4.446;2023-04-22T05:10:42;78508.06;;;-144.67;100.00
47522;BME280;32291;52.010;4.446;2023-04-22T05:11:44;78505.91;;;-144.67;100.00
47522;BME280;32291;52.010;4.446;2023-04-22T05:12:45;78510.19;;;-144.67;100.00
47522;BME280;32291;52.010;4.446;2023-04-22T05:13:48;78505.91;;;-144.67;100.00
47522;BME280;32291;52.010;4.446;2023-04-22T05:14:49;78503.78;;;-144.67;100.00
47522;BME280;32291;52.010;4.446;2023-04-22T05:15:51;78501.63;;;-144.67;100.00
47522;BME280;32291;52.010;4.446;2023-04-22T05:16:53;78497.34;;;-144.67;100.00